Estación Meteorológica Peña el Pijo (Robertgarden) [ 11/20/18 00:31:11 CET ]

Fecha Hora Presion(HPa) Temp (°C) Humedad % Rocio (°C) Viento ( m/s) Direccion Lluvia 1Hora(mm) Lluvia 24H(mm) LLuvia Total(mm)
2018-Nov-04 01:01:44 1008.300 1.9 77 -1.7         94.79
2018-Nov-04 02:03:13 1007.600 1.5 77 -2.1         94.79
2018-Nov-04 03:01:35 1007.100 1.3 77 -2.3         94.79
2018-Nov-04 04:01:36 1006.500 1.3 77 -2.3         94.79
2018-Nov-04 05:01:59 1006.200 1.8 77 -1.8         94.79
2018-Nov-04 06:01:46 1005.900 1.6 77 -2.0         94.79
2018-Nov-04 07:01:38 1005.600 1.3 78 -2.2         94.79
2018-Nov-04 08:02:02 1005.500 2.1 78 -1.4         94.79
2018-Nov-04 09:01:52 1005.500 4.4 81 1.4         94.79
2018-Nov-04 10:01:48 1005.500 13.0 58 4.9         94.79
2018-Nov-04 11:01:59 1005.200 16.6 38 2.1         94.79
2018-Nov-04 12:02:08 1004.400 18.1 32 1.1 1.5 NW     94.79
2018-Nov-04 13:01:57 1003.300 18.4 31 1.0         94.79
2018-Nov-04 14:01:34 1002.500 21.0 28 1.7         94.79
2018-Nov-04 15:01:42 1001.800 20.1 30 2.0         94.79
2018-Nov-04 16:01:52 1001.300 19.1 33 2.4         94.79
2018-Nov-04 17:02:00 1001.300 16.8 36 1.5         94.79
2018-Nov-04 18:01:41 1001.000 13.1 43 0.7         94.79
2018-Nov-04 19:01:50 1001.200 8.9 53 -0.2         94.79
2018-Nov-04 20:01:54 1001.300 6.4 63 -0.2         94.79
2018-Nov-04 21:01:42 1000.900 5.4 68 -0.0         94.79
2018-Nov-04 22:01:58 1000.900 4.1 72 -0.5         94.79
2018-Nov-04 23:02:06 1000.500 2.9 75 -1.1         94.79

Temperatura Máxima:21°    Temperatura Mínima:
Presión Máxima:1008.300 Hpa    Presión Mínima:1000.500 Hpa


Volver